createdAt,value
2022-08-31T00:03:36.811Z,21.55
2022-08-31T00:08:39.605Z,21.67
2022-08-31T00:13:42.874Z,20.98
2022-08-31T00:18:47.459Z,20.65
2022-08-31T00:23:50.782Z,19.00
2022-08-31T00:28:53.782Z,19.45
2022-08-31T00:33:56.997Z,18.77
2022-08-31T00:38:59.749Z,19.35
2022-08-31T00:44:05.837Z,18.02
2022-08-31T00:49:21.328Z,17.65
2022-08-31T00:54:40.553Z,17.48
2022-08-31T00:59:44.117Z,16.90
2022-08-31T01:04:46.897Z,17.42
2022-08-31T01:09:55.338Z,17.38
2022-08-31T01:15:00.341Z,16.67
2022-08-31T01:20:15.990Z,15.93
2022-08-31T01:25:19.860Z,16.65
2022-08-31T01:30:25.834Z,16.38
2022-08-31T01:35:29.472Z,14.73
2022-08-31T01:40:35.098Z,16.15
2022-08-31T01:45:38.220Z,16.02
2022-08-31T01:50:41.374Z,15.93
2022-08-31T01:55:44.056Z,15.40
2022-08-31T02:00:47.082Z,15.35
2022-08-31T02:05:49.936Z,15.00
2022-08-31T02:10:53.326Z,15.35
2022-08-31T02:15:56.250Z,13.07
2022-08-31T02:20:59.175Z,12.68
2022-08-31T02:26:03.707Z,12.20
2022-08-31T02:31:06.869Z,12.15
2022-08-31T02:36:20.117Z,13.88
2022-08-31T02:41:22.998Z,13.60
2022-08-31T02:46:25.795Z,12.60
2022-08-31T02:51:51.238Z,12.32
2022-08-31T02:56:54.355Z,12.48
2022-08-31T03:01:57.433Z,11.43
2022-08-31T03:07:00.343Z,11.25
2022-08-31T03:12:04.351Z,11.48
2022-08-31T03:17:08.377Z,10.93
2022-08-31T03:22:12.771Z,10.45
2022-08-31T03:27:15.514Z,10.20
2022-08-31T03:32:20.989Z,9.73
2022-08-31T03:37:27.301Z,10.02
2022-08-31T03:42:33.818Z,9.60
2022-08-31T03:47:44.537Z,10.02
2022-08-31T03:52:50.215Z,10.18
2022-08-31T03:57:55.809Z,9.50
2022-08-31T04:03:00.238Z,10.52
2022-08-31T04:08:05.996Z,9.63
2022-08-31T04:13:21.040Z,8.52
2022-08-31T04:18:45.619Z,9.20
2022-08-31T04:23:49.704Z,9.68
2022-08-31T04:28:53.938Z,9.88
2022-08-31T04:33:57.509Z,9.35
2022-08-31T04:39:02.659Z,9.65
2022-08-31T04:44:06.253Z,10.30
2022-08-31T04:49:11.112Z,10.45
2022-08-31T04:54:14.612Z,9.80
2022-08-31T04:59:19.230Z,10.38
2022-08-31T05:04:41.330Z,10.75
2022-08-31T05:09:44.656Z,10.50
2022-08-31T05:14:48.431Z,10.43
2022-08-31T05:19:58.484Z,10.40
2022-08-31T05:25:01.511Z,9.73
2022-08-31T05:30:06.551Z,11.33
2022-08-31T05:35:15.544Z,10.15
2022-08-31T05:40:20.286Z,11.02
2022-08-31T05:45:23.225Z,9.73
2022-08-31T05:50:26.704Z,10.00
2022-08-31T05:55:29.786Z,10.07
2022-08-31T06:00:33.411Z,9.93
2022-08-31T06:05:56.141Z,9.82
2022-08-31T06:11:01.182Z,9.80
2022-08-31T06:16:08.721Z,10.60
2022-08-31T06:21:15.787Z,10.00
2022-08-31T06:26:20.948Z,10.43
2022-08-31T06:36:32.434Z,10.25
2022-08-31T06:41:47.033Z,10.02
2022-08-31T06:47:13.807Z,10.40
2022-08-31T06:52:17.783Z,10.27
2022-08-31T06:57:26.504Z,10.52
2022-08-31T07:03:23.393Z,10.32
2022-08-31T07:08:27.429Z,10.65
2022-08-31T07:13:31.239Z,10.50
2022-08-31T07:18:35.054Z,10.43
2022-08-31T07:23:39.250Z,9.93
2022-08-31T07:28:53.372Z,10.65
2022-08-31T07:33:57.601Z,10.10
2022-08-31T07:39:20.475Z,9.77
2022-08-31T07:44:24.805Z,10.20
2022-08-31T07:49:27.832Z,9.85
2022-08-31T07:54:47.094Z,10.93
2022-08-31T08:00:08.722Z,9.73
2022-08-31T08:05:27.017Z,11.30
2022-08-31T08:10:52.394Z,11.98
2022-08-31T08:16:13.952Z,11.57
2022-08-31T08:21:52.716Z,12.35
2022-08-31T08:27:00.202Z,10.65
2022-08-31T08:32:31.819Z,12.23
2022-08-31T08:37:56.778Z,11.50
2022-08-31T08:43:00.237Z,12.10
2022-08-31T08:48:09.285Z,12.35
2022-08-31T08:53:13.439Z,12.55
2022-08-31T08:58:25.951Z,13.80
2022-08-31T09:04:09.465Z,13.73
2022-08-31T09:09:35.145Z,13.80
2022-08-31T09:14:54.005Z,13.77
2022-08-31T09:20:00.699Z,13.52
2022-08-31T09:25:07.355Z,12.98
2022-08-31T09:30:46.124Z,12.93
2022-08-31T09:35:56.982Z,13.82
2022-08-31T09:41:00.234Z,13.48
2022-08-31T09:46:08.312Z,12.27
2022-08-31T09:51:21.329Z,12.75
2022-08-31T09:56:24.391Z,12.73
2022-08-31T10:02:00.484Z,12.18
2022-08-31T10:07:31.977Z,12.63
2022-08-31T10:12:46.820Z,11.68
2022-08-31T10:23:27.601Z,12.45
2022-08-31T10:28:37.791Z,12.38
2022-08-31T10:34:28.891Z,12.75
2022-08-31T10:39:34.243Z,13.25
2022-08-31T10:44:52.574Z,13.20
2022-08-31T10:50:03.787Z,12.70
2022-08-31T10:55:20.029Z,14.10
2022-08-31T11:00:45.118Z,13.68
2022-08-31T11:10:56.011Z,14.75
2022-08-31T11:16:24.802Z,15.90
2022-08-31T11:21:30.193Z,15.75
2022-08-31T11:27:14.898Z,16.33
2022-08-31T11:32:34.608Z,17.20
2022-08-31T11:37:56.204Z,16.67
2022-08-31T11:43:01.664Z,16.42
2022-08-31T11:48:10.617Z,16.15
2022-08-31T11:53:40.352Z,17.92
2022-08-31T11:58:45.202Z,17.08
2022-08-31T12:03:56.127Z,17.10
2022-08-31T12:09:28.453Z,14.90
2022-08-31T12:14:40.113Z,16.05
2022-08-31T12:20:13.230Z,16.40
2022-08-31T12:25:49.289Z,16.88
2022-08-31T12:30:55.173Z,17.23
2022-08-31T12:36:13.234Z,17.70
2022-08-31T12:41:16.193Z,17.55
2022-08-31T12:46:33.900Z,13.02
2022-08-31T12:51:45.636Z,10.23
2022-08-31T12:56:51.203Z,9.45
2022-08-31T13:01:54.075Z,8.45
2022-08-31T13:07:13.436Z,6.70
2022-08-31T13:12:24.316Z,6.20
2022-08-31T13:17:27.356Z,5.60
2022-08-31T13:22:41.723Z,5.30
2022-08-31T13:27:50.309Z,6.43
2022-08-31T13:32:55.113Z,8.15
2022-08-31T13:38:05.694Z,6.05
2022-08-31T13:43:10.526Z,6.75
2022-08-31T13:48:16.385Z,6.63
2022-08-31T13:53:42.157Z,7.22
2022-08-31T13:58:45.150Z,8.80
2022-08-31T14:03:57.559Z,8.80
2022-08-31T14:09:08.082Z,7.47
2022-08-31T14:14:13.177Z,6.93
2022-08-31T14:19:30.485Z,8.18
2022-08-31T14:24:33.217Z,8.18
2022-08-31T14:29:40.814Z,8.32
2022-08-31T14:34:47.622Z,8.55
2022-08-31T14:39:55.707Z,9.93
2022-08-31T14:45:00.678Z,9.15
2022-08-31T14:50:08.363Z,9.00
2022-08-31T14:55:12.398Z,8.95
2022-08-31T15:00:22.269Z,8.93
2022-08-31T15:05:25.967Z,9.20
2022-08-31T15:10:28.770Z,9.60
2022-08-31T15:15:36.071Z,10.00
2022-08-31T15:20:42.277Z,9.82
2022-08-31T15:25:45.203Z,9.77
2022-08-31T15:30:47.930Z,10.10
2022-08-31T15:35:50.652Z,10.27
2022-08-31T15:40:53.458Z,11.05
2022-08-31T15:45:56.305Z,11.27
2022-08-31T15:51:01.602Z,11.52
2022-08-31T16:01:16.500Z,11.00
2022-08-31T16:06:22.174Z,12.63
2022-08-31T16:11:27.504Z,12.13
2022-08-31T16:16:35.188Z,10.98
2022-08-31T16:21:40.460Z,12.65
2022-08-31T16:26:43.953Z,11.43
2022-08-31T16:31:47.000Z,13.45
2022-08-31T16:36:50.883Z,14.20
2022-08-31T16:41:53.642Z,14.93
2022-08-31T16:46:56.533Z,16.23
2022-08-31T16:52:03.636Z,12.98
2022-08-31T16:57:06.395Z,14.05
2022-08-31T17:02:12.212Z,14.27
2022-08-31T17:07:16.826Z,15.88
2022-08-31T17:12:21.967Z,21.63
2022-08-31T17:17:26.302Z,17.38
2022-08-31T17:22:33.189Z,15.38
2022-08-31T17:27:36.403Z,15.23
2022-08-31T17:32:45.282Z,17.35
2022-08-31T17:37:50.320Z,16.70
2022-08-31T17:42:55.941Z,17.10
2022-08-31T17:48:02.109Z,17.80
2022-08-31T17:53:04.957Z,17.90
2022-08-31T17:58:07.866Z,18.13
2022-08-31T18:03:10.879Z,17.60
2022-08-31T18:08:14.332Z,18.50
2022-08-31T18:13:16.994Z,19.60
2022-08-31T18:18:19.987Z,20.20
2022-08-31T18:23:23.277Z,21.70
2022-08-31T18:28:26.013Z,26.00
2022-08-31T18:33:29.301Z,23.52
2022-08-31T18:38:32.278Z,24.83
2022-08-31T18:43:53.695Z,25.80
2022-08-31T18:49:01.035Z,25.20
2022-08-31T18:54:10.408Z,25.50
2022-08-31T18:59:13.714Z,24.50
2022-08-31T19:04:21.202Z,27.13
2022-08-31T19:09:24.994Z,23.05
2022-08-31T19:14:27.831Z,22.90
2022-08-31T19:19:31.961Z,24.25
2022-08-31T19:24:36.291Z,22.25
2022-08-31T19:29:39.379Z,22.15
2022-08-31T19:34:43.508Z,22.42
2022-08-31T19:39:46.626Z,22.90
2022-08-31T19:45:22.712Z,23.60
2022-08-31T19:50:13.933Z,23.85
2022-08-31T19:55:16.850Z,23.27
2022-08-31T20:00:20.434Z,23.95
2022-08-31T20:05:23.183Z,23.75
2022-08-31T20:10:27.139Z,23.88
2022-08-31T20:15:33.013Z,24.25
2022-08-31T20:20:45.984Z,24.15
2022-08-31T20:25:50.754Z,24.50
2022-08-31T20:31:00.405Z,22.50
2022-08-31T20:36:14.376Z,22.92
2022-08-31T20:41:17.120Z,24.00
2022-08-31T20:46:38.536Z,22.98
2022-08-31T20:51:42.941Z,24.25
2022-08-31T20:56:46.294Z,23.45
2022-08-31T21:01:52.727Z,23.48
2022-08-31T21:06:58.165Z,23.08
2022-08-31T21:12:01.848Z,23.55
2022-08-31T21:17:06.640Z,21.75
2022-08-31T21:22:12.222Z,22.52
2022-08-31T21:32:20.126Z,22.95
2022-08-31T21:37:23.009Z,22.40
2022-08-31T21:42:25.837Z,23.13
2022-08-31T21:47:29.202Z,23.17
2022-08-31T21:52:31.942Z,22.52
2022-08-31T21:57:34.695Z,23.23
2022-08-31T22:02:37.400Z,24.65
2022-08-31T22:07:41.011Z,24.63
2022-08-31T22:12:43.805Z,24.58
2022-08-31T22:18:11.480Z,25.15
2022-08-31T22:23:10.433Z,24.92
2022-08-31T22:28:13.397Z,25.15
2022-08-31T22:33:16.275Z,24.33
2022-08-31T22:38:19.368Z,24.63
2022-08-31T22:43:22.598Z,25.63
2022-08-31T22:48:25.288Z,24.83
2022-08-31T22:53:27.968Z,24.42
2022-08-31T22:58:30.712Z,25.92
2022-08-31T23:03:33.519Z,26.88
2022-08-31T23:08:36.285Z,24.67
2022-08-31T23:13:55.906Z,23.98
2022-08-31T23:19:12.673Z,25.30
2022-08-31T23:24:21.490Z,26.35
2022-08-31T23:29:25.640Z,25.85
2022-08-31T23:34:28.462Z,25.58
2022-08-31T23:39:31.441Z,25.23
2022-08-31T23:44:36.332Z,24.85
2022-08-31T23:49:39.214Z,23.37
2022-08-31T23:54:41.977Z,23.27
2022-08-31T23:59:52.783Z,22.55
